Terminal Aerodrome Forecast
Issued by NWS

Home | Current Version | Previous Version | Text Only | Print | Product List | Glossary On
Versions: 1 2 3 4 5 6 7 8 9 10 11 12 13 14 15 16 17 18
452
FTUS42 KFFC 211723
TAFPDK
TAF
KPDK 211723Z 2118/2218 11008KT P6SM SCT060
     FM220000 11005KT P6SM BKN050
     FM221000 10008KT P6SM OVC035
     FM221200 10009KT P6SM VCSH OVC012
     FM221400 10010KT P6SM SHRA OVC018=

USA.gov is the U.S. government's official web portal to all federal, state and local government web resources and services.